Time;durP1;ratioP1;P1;durP2;ratioP2;P2;SDS_P1;SDS_P2;PMS_P1;PMS_P2;Temp;Humidity;BMP_temperature;BMP_pressure;BME280_temperature;BME280_humidity;BME280_pressure;Samples;Min_cycle;Max_cycle;Signal;HPM_P1;HPM_P2
2023/09/06 00:01:27;;;;;;;1.98;1.80;;;20.30;99.90;;;;;;5051288;28;20235;-66
2023/09/06 00:03:55;;;;;;;2.67;1.73;;;20.20;99.90;;;;;;5046136;28;20188;-69
2023/09/06 00:06:22;;;;;;;3.13;1.63;;;20.20;99.90;;;;;;5051504;28;20216;-68
2023/09/06 00:08:50;;;;;;;3.50;1.73;;;20.20;99.90;;;;;;5052967;28;20438;-69
2023/09/06 00:11:16;;;;;;;2.17;1.67;;;20.20;99.90;;;;;;5053219;28;20200;-69
2023/09/06 00:13:42;;;;;;;2.38;1.60;;;20.10;99.90;;;;;;5036818;28;20217;-68
2023/09/06 00:16:08;;;;;;;2.63;1.63;;;20.10;99.90;;;;;;5053767;28;20235;-69
2023/09/06 00:18:35;;;;;;;2.53;1.60;;;20.10;99.90;;;;;;5054325;28;20169;-69
2023/09/06 00:21:05;;;;;;;2.08;1.63;;;20.00;99.90;;;;;;5044539;28;20192;-67
2023/09/06 00:23:34;;;;;;;2.25;1.70;;;20.00;99.90;;;;;;5034408;28;20272;-69
2023/09/06 00:25:59;;;;;;;2.75;1.38;;;20.00;99.90;;;;;;5041800;28;20185;-68
2023/09/06 00:28:25;;;;;;;1.80;1.45;;;20.00;99.90;;;;;;5052454;28;20369;-68
2023/09/06 00:30:55;;;;;;;2.15;1.80;;;20.00;99.90;;;;;;5049221;28;20209;-69
2023/09/06 00:33:21;;;;;;;2.65;1.70;;;19.90;99.90;;;;;;5053832;28;20204;-69
2023/09/06 00:35:47;;;;;;;2.42;1.60;;;19.90;99.90;;;;;;5053868;28;20169;-68
2023/09/06 00:38:14;;;;;;;2.72;1.52;;;19.90;99.90;;;;;;5048656;28;20188;-69
2023/09/06 00:40:42;;;;;;;1.70;1.60;;;19.90;99.90;;;;;;5053267;28;20178;-69
2023/09/06 00:43:08;;;;;;;2.55;1.73;;;19.90;99.90;;;;;;5047060;28;20177;-69
2023/09/06 00:45:37;;;;;;;1.98;1.67;;;19.80;99.90;;;;;;5049616;28;20217;-70
2023/09/06 00:48:07;;;;;;;1.92;1.65;;;19.80;99.90;;;;;;5052503;28;20212;-76
2023/09/06 00:50:35;;;;;;;2.53;2.00;;;19.80;99.90;;;;;;5050634;28;20194;-76
2023/09/06 00:53:04;;;;;;;1.90;1.70;;;19.80;99.90;;;;;;5035062;28;20415;-74
2023/09/06 00:55:33;;;;;;;1.75;1.58;;;19.70;99.90;;;;;;5053761;28;20201;-72
2023/09/06 00:57:59;;;;;;;2.58;1.70;;;19.70;99.90;;;;;;5049003;28;20174;-74
2023/09/06 01:00:28;;;;;;;2.05;1.73;;;19.70;99.90;;;;;;5052940;28;20452;-76
2023/09/06 01:02:56;;;;;;;2.00;1.75;;;19.60;99.90;;;;;;5053835;28;20235;-75
2023/09/06 01:05:23;;;;;;;3.28;1.70;;;19.70;99.90;;;;;;5050282;28;20182;-75
2023/09/06 01:07:57;;;;;;;1.85;1.60;;;19.70;99.90;;;;;;5053804;28;20174;-73
2023/09/06 01:10:25;;;;;;;1.75;1.55;;;19.60;99.90;;;;;;5042496;28;20170;-72
2023/09/06 01:12:54;;;;;;;2.42;1.70;;;19.60;99.90;;;;;;5052819;28;20281;-75
2023/09/06 01:15:21;;;;;;;1.83;1.63;;;19.60;99.90;;;;;;5053265;28;20196;-75
2023/09/06 01:17:51;;;;;;;2.28;1.63;;;19.60;99.90;;;;;;5050905;28;20237;-75
2023/09/06 01:20:42;;;;;;;1.60;1.40;;;19.60;99.90;;;;;;5034822;28;20188;-74
2023/09/06 01:23:38;;;;;;;2.33;1.65;;;19.60;99.90;;;;;;5033954;28;20209;-74
2023/09/06 01:26:06;;;;;;;1.60;1.50;;;19.60;99.90;;;;;;5034523;28;20189;-74
2023/09/06 01:28:34;;;;;;;2.05;1.60;;;19.50;99.90;;;;;;5044121;28;20186;-74
2023/09/06 01:31:00;;;;;;;1.80;1.55;;;19.50;99.90;;;;;;5057181;28;20177;-74
2023/09/06 01:33:28;;;;;;;2.72;1.60;;;19.40;99.90;;;;;;5052730;28;20201;-75
2023/09/06 01:35:59;;;;;;;2.10;1.90;;;19.40;99.90;;;;;;5055794;28;20208;-73
2023/09/06 01:38:27;;;;;;;2.08;1.60;;;19.40;99.90;;;;;;5050264;28;20169;-74
2023/09/06 01:40:53;;;;;;;2.53;1.73;;;19.30;99.90;;;;;;5052391;28;20174;-74
2023/09/06 01:43:21;;;;;;;2.25;1.60;;;19.30;99.90;;;;;;5044652;28;20188;-72
2023/09/06 01:45:55;;;;;;;2.85;1.40;;;19.30;99.90;;;;;;5055618;28;20212;-74
2023/09/06 01:48:24;;;;;;;1.58;1.48;;;19.20;99.90;;;;;;5053140;28;20660;-74
2023/09/06 01:50:49;;;;;;;1.60;1.50;;;19.20;99.90;;;;;;5052803;28;20205;-74
2023/09/06 01:53:15;;;;;;;1.83;1.63;;;19.10;99.90;;;;;;5048853;28;20205;-69
2023/09/06 01:55:42;;;;;;;2.13;1.70;;;19.10;99.90;;;;;;5056151;28;20192;-72
2023/09/06 01:58:12;;;;;;;1.88;1.65;;;19.10;99.90;;;;;;5056083;28;20173;-71
2023/09/06 02:00:38;;;;;;;1.83;1.58;;;19.10;99.90;;;;;;5055753;28;20256;-72
2023/09/06 02:03:10;;;;;;;2.22;1.80;;;19.00;99.90;;;;;;5048788;28;20263;-74
2023/09/06 02:05:41;;;;;;;3.08;1.67;;;19.00;99.90;;;;;;5056380;28;20173;-74
2023/09/06 02:08:13;;;;;;;2.53;1.70;;;19.00;99.90;;;;;;5056330;28;20185;-74
2023/09/06 02:10:38;;;;;;;2.95;1.90;;;18.90;99.90;;;;;;5054465;28;20177;-72
2023/09/06 02:13:08;;;;;;;2.30;1.70;;;18.90;99.90;;;;;;5056029;28;20275;-74
2023/09/06 02:15:34;;;;;;;1.92;1.58;;;18.90;99.90;;;;;;5043918;28;20169;-74
2023/09/06 02:18:02;;;;;;;2.13;1.58;;;18.90;99.90;;;;;;5051913;28;20171;-74
2023/09/06 02:20:28;;;;;;;2.47;1.65;;;18.90;99.90;;;;;;5056103;28;20261;-74
2023/09/06 02:22:58;;;;;;;1.95;1.55;;;18.80;99.90;;;;;;5052519;28;20280;-74
2023/09/06 02:25:29;;;;;;;2.78;1.70;;;18.80;99.90;;;;;;5055545;28;20243;-74
2023/09/06 02:27:56;;;;;;;2.70;1.90;;;18.80;99.90;;;;;;5056386;28;20186;-74
2023/09/06 02:30:22;;;;;;;2.25;1.90;;;18.70;99.90;;;;;;5055934;28;20239;-73
2023/09/06 02:32:48;;;;;;;2.60;1.92;;;18.70;99.90;;;;;;5055804;28;20201;-73
2023/09/06 02:35:16;;;;;;;2.13;1.90;;;18.70;99.90;;;;;;5054443;28;20260;-74
2023/09/06 02:37:44;;;;;;;6.22;2.10;;;18.70;99.90;;;;;;5056471;28;20185;-74
2023/09/06 02:40:12;;;;;;;2.45;1.70;;;18.60;99.90;;;;;;5056062;28;20261;-74
2023/09/06 02:42:40;;;;;;;2.00;1.77;;;18.60;99.90;;;;;;5038036;28;20228;-70
2023/09/06 02:45:12;;;;;;;3.00;1.67;;;18.50;99.90;;;;;;5049775;28;20212;-73
2023/09/06 02:47:47;;;;;;;2.05;1.42;;;18.50;99.90;;;;;;5036258;28;20225;-73
2023/09/06 02:50:16;;;;;;;2.20;1.80;;;18.50;99.90;;;;;;5040704;28;20172;-73
2023/09/06 02:52:45;;;;;;;2.65;2.00;;;18.50;99.90;;;;;;5054333;28;20197;-73
2023/09/06 02:55:13;;;;;;;3.05;1.80;;;18.40;99.90;;;;;;5055006;28;20170;-73
2023/09/06 02:57:40;;;;;;;2.42;1.90;;;18.40;99.90;;;;;;5055246;28;20172;-73
2023/09/06 03:03:07;;;;;;;3.28;2.15;;;18.40;99.90;;;;;;5040938;28;20213;-73
2023/09/06 03:05:44;;;;;;;4.68;1.83;;;18.40;99.90;;;;;;5052075;28;20201;-73
2023/09/06 03:08:13;;;;;;;2.50;1.83;;;18.40;99.90;;;;;;5055316;28;20263;-73
2023/09/06 03:10:44;;;;;;;3.45;1.80;;;18.40;99.90;;;;;;5052539;28;20248;-73
2023/09/06 03:13:10;;;;;;;2.85;1.88;;;18.30;99.90;;;;;;5037557;28;20247;-73
2023/09/06 03:15:36;;;;;;;3.38;1.65;;;18.30;99.90;;;;;;5055701;28;20173;-73
2023/09/06 03:18:04;;;;;;;1.88;1.50;;;18.30;99.90;;;;;;5054926;28;20174;-73
2023/09/06 03:20:42;;;;;;;2.58;1.75;;;18.30;99.90;;;;;;5058897;28;20170;-72
2023/09/06 03:23:19;;;;;;;2.65;1.63;;;18.30;99.90;;;;;;5056600;28;20185;-73
2023/09/06 03:25:45;;;;;;;3.10;1.85;;;18.30;99.90;;;;;;5057377;28;20186;-71
2023/09/06 03:28:12;;;;;;;3.67;1.98;;;18.30;99.90;;;;;;5052616;28;20174;-74
2023/09/06 03:30:38;;;;;;;3.42;1.67;;;18.30;99.90;;;;;;5041157;28;20178;-73
2023/09/06 03:33:08;;;;;;;2.90;2.03;;;18.30;99.90;;;;;;5054198;28;20209;-73
2023/09/06 03:35:34;;;;;;;2.80;1.88;;;18.30;99.90;;;;;;5055057;28;20193;-73
2023/09/06 03:38:01;;;;;;;2.17;1.73;;;18.30;99.90;;;;;;5054772;28;20185;-71
2023/09/06 03:40:36;;;;;;;2.00;1.80;;;18.30;99.90;;;;;;5053739;28;20188;-73
2023/09/06 03:43:14;;;;;;;2.08;1.80;;;18.30;99.90;;;;;;5054854;28;20211;-73
2023/09/06 03:45:44;;;;;;;3.17;2.15;;;18.30;99.90;;;;;;5042760;28;20190;-73
2023/09/06 03:48:11;;;;;;;2.78;1.80;;;18.30;99.90;;;;;;5054175;28;20173;-71
2023/09/06 03:50:41;;;;;;;2.10;1.70;;;18.20;99.90;;;;;;5050548;28;20213;-71
2023/09/06 03:53:07;;;;;;;2.13;1.60;;;18.20;99.90;;;;;;5043130;28;20252;-73
2023/09/06 03:55:34;;;;;;;2.63;1.98;;;18.20;99.90;;;;;;5053374;28;20169;-73
2023/09/06 03:58:04;;;;;;;2.17;1.85;;;18.20;99.90;;;;;;5054329;28;20165;-73
2023/09/06 04:00:31;;;;;;;2.72;1.80;;;18.20;99.90;;;;;;5053093;28;20197;-73
2023/09/06 04:02:57;;;;;;;2.15;1.77;;;18.20;99.90;;;;;;5054073;28;20200;-73
2023/09/06 04:05:25;;;;;;;3.05;2.10;;;18.20;99.90;;;;;;5042541;28;20205;-73
2023/09/06 04:07:58;;;;;;;2.08;1.85;;;18.10;99.90;;;;;;5050527;28;20190;-73
2023/09/06 04:10:27;;;;;;;2.60;1.88;;;18.10;99.90;;;;;;5053869;28;20166;-72
2023/09/06 04:12:55;;;;;;;2.55;1.85;;;18.10;99.90;;;;;;5051658;28;20209;-73
2023/09/06 04:15:23;;;;;;;2.33;1.80;;;18.10;99.90;;;;;;5054264;28;20227;-73
2023/09/06 04:17:58;;;;;;;3.35;2.08;;;18.10;99.90;;;;;;5054004;28;20177;-73
2023/09/06 04:20:31;;;;;;;2.67;2.00;;;18.10;99.90;;;;;;5045363;28;20505;-73
2023/09/06 04:22:57;;;;;;;2.30;2.10;;;18.00;99.90;;;;;;5039980;28;20223;-72
2023/09/06 04:25:26;;;;;;;3.25;2.30;;;18.00;99.90;;;;;;5050091;28;20262;-71
2023/09/06 04:27:58;;;;;;;7.57;5.85;;;17.90;99.90;;;;;;5050385;28;20365;-73
2023/09/06 04:30:28;;;;;;;5.15;4.50;;;17.90;99.90;;;;;;5053758;28;20173;-74
2023/09/06 04:32:57;;;;;;;6.22;4.78;;;17.90;99.90;;;;;;5050409;28;20201;-74
2023/09/06 04:35:31;;;;;;;5.70;5.10;;;17.90;99.90;;;;;;5053191;28;20206;-74
2023/09/06 04:38:02;;;;;;;4.97;3.50;;;17.80;99.90;;;;;;5054181;28;20253;-73
2023/09/06 04:40:32;;;;;;;3.92;3.10;;;17.80;99.90;;;;;;5050254;28;20185;-72
2023/09/06 04:42:58;;;;;;;6.57;5.35;;;17.80;99.90;;;;;;5049606;28;20205;-73
2023/09/06 04:45:24;;;;;;;5.75;4.90;;;17.70;99.90;;;;;;5041094;28;20196;-73
2023/09/06 04:47:49;;;;;;;5.13;3.90;;;17.70;99.90;;;;;;5053204;28;20177;-72
2023/09/06 04:50:21;;;;;;;4.55;3.20;;;17.60;99.90;;;;;;5053976;28;20258;-71
2023/09/06 04:52:48;;;;;;;4.15;2.83;;;17.60;99.90;;;;;;5034445;28;20259;-73
2023/09/06 04:55:14;;;;;;;3.00;2.63;;;17.60;99.90;;;;;;5045836;28;20185;-73
2023/09/06 04:57:46;;;;;;;4.07;2.58;;;17.60;99.90;;;;;;5063322;28;20197;-73
2023/09/06 05:00:23;;;;;;;15.52;11.60;;;17.60;99.90;;;;;;5033698;28;20175;-73
2023/09/06 05:02:53;;;;;;;10.35;9.10;;;17.60;99.90;;;;;;5037835;28;20197;-73
2023/09/06 05:05:22;;;;;;;8.77;6.47;;;17.60;99.90;;;;;;5037741;28;20459;-72
2023/09/06 05:07:50;;;;;;;5.13;4.40;;;17.60;99.90;;;;;;5037660;28;20243;-76
2023/09/06 05:10:15;;;;;;;6.10;3.55;;;17.60;99.90;;;;;;5054080;28;20231;-75
2023/09/06 05:12:45;;;;;;;8.10;4.97;;;17.60;99.90;;;;;;5055441;28;20209;-75
2023/09/06 05:15:12;;;;;;;5.80;3.60;;;17.60;99.90;;;;;;5057600;28;20181;-75
2023/09/06 05:17:40;;;;;;;6.55;3.83;;;17.60;99.90;;;;;;5056873;28;20268;-75
2023/09/06 05:20:33;;;;;;;5.65;3.47;;;17.60;99.90;;;;;;5051266;28;20246;-74
2023/09/06 05:23:04;;;;;;;3.85;2.92;;;17.60;99.90;;;;;;5037433;28;20194;-74
2023/09/06 05:25:31;;;;;;;3.40;2.65;;;17.60;99.90;;;;;;5037092;28;20209;-75
2023/09/06 05:28:16;;;;;;;4.55;3.08;;;17.70;99.90;;;;;;5037371;28;20228;-75
2023/09/06 05:30:46;;;;;;;9.70;6.82;;;17.70;99.90;;;;;;5044666;28;20193;-75
2023/09/06 05:33:13;;;;;;;18.17;13.32;;;17.70;99.90;;;;;;5053835;28;20212;-75
2023/09/06 05:35:41;;;;;;;8.55;7.53;;;17.70;99.90;;;;;;5056640;28;20177;-74
2023/09/06 05:38:09;;;;;;;6.32;4.80;;;17.70;99.90;;;;;;5072985;28;20205;-75
2023/09/06 05:40:35;;;;;;;5.60;4.05;;;17.70;99.90;;;;;;5052989;28;20182;-74
2023/09/06 05:43:01;;;;;;;4.43;3.50;;;17.80;99.90;;;;;;5037117;28;20182;-73
2023/09/06 05:45:27;;;;;;;3.55;3.10;;;17.80;99.90;;;;;;5056265;28;20208;-74
2023/09/06 05:47:53;;;;;;;6.63;4.05;;;17.80;99.90;;;;;;5054012;28;20178;-74
2023/09/06 05:50:19;;;;;;;6.15;3.22;;;17.80;99.90;;;;;;5037210;28;20472;-72
2023/09/06 05:52:46;;;;;;;4.03;2.97;;;17.80;99.90;;;;;;5038042;28;20198;-74
2023/09/06 05:55:12;;;;;;;6.88;3.20;;;17.90;99.90;;;;;;5037782;28;20193;-74
2023/09/06 05:57:38;;;;;;;3.42;2.58;;;17.90;99.90;;;;;;5037378;28;20201;-74
2023/09/06 06:00:12;;;;;;;4.40;3.33;;;18.00;99.90;;;;;;5054408;28;20253;-74
2023/09/06 06:02:44;;;;;;;4.32;3.05;;;18.00;99.90;;;;;;5057193;28;20234;-75
2023/09/06 06:05:12;;;;;;;4.40;2.90;;;18.10;99.90;;;;;;5059884;28;20224;-70
2023/09/06 06:07:40;;;;;;;3.25;2.50;;;18.10;99.90;;;;;;5062034;28;20177;-74
2023/09/06 06:10:12;;;;;;;3.58;2.33;;;18.20;99.90;;;;;;5061911;28;20173;-73
2023/09/06 06:12:38;;;;;;;4.15;2.25;;;18.20;99.90;;;;;;5055354;28;20267;-73
2023/09/06 06:15:08;;;;;;;5.85;2.25;;;18.30;99.90;;;;;;5056678;28;20184;-74
2023/09/06 06:17:34;;;;;;;2.88;2.17;;;18.30;99.90;;;;;;5056342;28;20173;-74
2023/09/06 06:20:03;;;;;;;3.17;2.35;;;18.40;99.90;;;;;;5036506;28;20177;-74
2023/09/06 06:22:34;;;;;;;4.15;2.00;;;18.50;99.90;;;;;;5047524;28;20197;-73
2023/09/06 06:25:02;;;;;;;2.50;2.20;;;18.50;99.90;;;;;;5056322;28;20264;-74
2023/09/06 06:27:33;;;;;;;3.13;2.33;;;18.60;99.90;;;;;;5055590;28;20247;-74
2023/09/06 06:29:59;;;;;;;3.53;2.30;;;18.60;99.90;;;;;;5050971;28;20185;-74
2023/09/06 06:32:25;;;;;;;4.20;2.55;;;18.60;99.90;;;;;;5036015;28;20288;-74
2023/09/06 06:34:53;;;;;;;3.83;2.78;;;18.70;99.90;;;;;;5036372;28;20201;-74
2023/09/06 06:37:21;;;;;;;4.35;2.40;;;18.80;99.90;;;;;;5035941;28;20412;-72
2023/09/06 06:39:47;;;;;;;3.85;2.70;;;18.90;99.90;;;;;;5036231;28;20201;-74
2023/09/06 06:42:14;;;;;;;3.47;2.40;;;18.90;99.90;;;;;;5036756;28;20170;-73
2023/09/06 06:44:47;;;;;;;4.40;3.00;;;18.90;99.90;;;;;;5048437;28;20241;-74
2023/09/06 06:47:13;;;;;;;2.80;2.30;;;19.00;99.90;;;;;;5055433;28;20170;-74
2023/09/06 06:49:39;;;;;;;3.45;2.50;;;19.10;99.90;;;;;;5055290;28;20234;-74
2023/09/06 06:52:05;;;;;;;3.00;2.22;;;19.10;99.90;;;;;;5055398;28;20181;-74
2023/09/06 06:54:31;;;;;;;4.43;2.25;;;19.20;99.90;;;;;;5055662;28;20189;-72
2023/09/06 06:56:56;;;;;;;2.55;2.20;;;19.30;99.90;;;;;;5054928;28;20193;-74
2023/09/06 06:59:22;;;;;;;2.53;1.95;;;19.30;99.90;;;;;;5055843;28;20173;-74
2023/09/06 07:01:48;;;;;;;3.28;2.40;;;19.40;99.90;;;;;;5051875;28;20177;-74
2023/09/06 07:04:14;;;;;;;4.72;2.15;;;19.50;99.90;;;;;;5035469;28;20178;-74
2023/09/06 07:06:39;;;;;;;3.65;2.17;;;19.50;99.90;;;;;;5054130;28;20200;-74
2023/09/06 07:09:05;;;;;;;3.53;2.30;;;19.60;99.90;;;;;;5050857;28;20259;-74
2023/09/06 07:11:31;;;;;;;3.25;2.28;;;19.70;99.90;;;;;;5035506;28;20467;-74
2023/09/06 07:13:57;;;;;;;2.40;1.90;;;19.70;99.90;;;;;;5045547;28;20212;-74
2023/09/06 07:16:25;;;;;;;2.80;2.25;;;19.80;99.90;;;;;;5055415;28;20173;-72
2023/09/06 07:18:51;;;;;;;2.80;2.22;;;19.80;99.90;;;;;;5053906;28;20173;-74
2023/09/06 07:21:19;;;;;;;5.68;2.30;;;19.90;99.90;;;;;;5054931;28;20418;-74
2023/09/06 07:23:47;;;;;;;3.17;2.30;;;20.00;99.90;;;;;;5054536;28;20208;-73
2023/09/06 07:26:12;;;;;;;3.53;2.08;;;20.10;99.90;;;;;;5055038;28;20208;-73
2023/09/06 07:28:45;;;;;;;3.30;1.90;;;20.10;99.90;;;;;;5036317;28;20234;-73
2023/09/06 07:31:12;;;;;;;2.40;2.10;;;20.20;99.90;;;;;;5054752;28;20181;-74
2023/09/06 07:33:38;;;;;;;2.80;2.33;;;20.30;99.90;;;;;;5054887;28;20205;-74
2023/09/06 07:36:07;;;;;;;3.35;2.20;;;20.40;99.90;;;;;;5043565;28;20174;-70
2023/09/06 07:38:33;;;;;;;3.90;2.38;;;20.50;99.90;;;;;;5051804;28;20178;-73
2023/09/06 07:41:01;;;;;;;2.72;2.38;;;20.50;99.90;;;;;;5053441;28;20177;-73
2023/09/06 07:43:28;;;;;;;3.38;2.38;;;20.60;99.90;;;;;;5054339;28;20205;-73
2023/09/06 07:46:08;;;;;;;2.58;2.25;;;20.60;99.90;;;;;;5055004;28;20177;-74
2023/09/06 07:48:38;;;;;;;2.50;2.03;;;20.70;99.90;;;;;;5042499;28;20182;-74
2023/09/06 07:51:07;;;;;;;3.33;2.28;;;20.80;99.90;;;;;;5034920;28;20212;-73
2023/09/06 07:53:33;;;;;;;2.80;2.20;;;20.90;99.90;;;;;;5046024;28;20263;-74
2023/09/06 07:55:58;;;;;;;2.72;2.22;;;20.90;99.90;;;;;;5050869;28;20181;-72
2023/09/06 07:58:27;;;;;;;3.22;2.22;;;21.00;99.90;;;;;;5034665;28;20173;-71
2023/09/06 08:00:52;;;;;;;2.72;2.20;;;21.10;99.90;;;;;;5039747;28;20201;-74
2023/09/06 08:03:18;;;;;;;2.35;1.90;;;21.20;99.90;;;;;;5054402;28;20227;-75
2023/09/06 08:05:44;;;;;;;2.95;2.20;;;21.30;99.90;;;;;;5048166;28;20268;-73
2023/09/06 08:08:10;;;;;;;3.22;2.28;;;21.40;99.90;;;;;;5051010;28;20451;-71
2023/09/06 08:10:37;;;;;;;1.80;1.70;;;21.40;99.90;;;;;;5054076;28;20259;-75
2023/09/06 08:13:03;;;;;;;17.15;9.02;;;21.50;99.90;;;;;;5054900;28;20220;-76
2023/09/06 08:15:30;;;;;;;20.33;13.77;;;21.60;99.90;;;;;;5053722;28;20227;-75
2023/09/06 08:17:56;;;;;;;15.73;9.98;;;21.70;99.90;;;;;;5053648;28;20231;-75
2023/09/06 08:20:22;;;;;;;9.65;6.30;;;21.80;99.90;;;;;;5052557;28;20181;-75
2023/09/06 08:22:48;;;;;;;6.03;4.53;;;21.90;99.90;;;;;;5051050;28;20170;-76
2023/09/06 08:25:17;;;;;;;4.35;3.25;;;22.00;99.90;;;;;;5053932;28;20184;-76
2023/09/06 08:27:43;;;;;;;3.28;2.63;;;22.10;99.90;;;;;;5054357;28;20173;-76
2023/09/06 08:30:15;;;;;;;3.00;2.50;;;22.20;99.90;;;;;;5054157;28;20209;-77
2023/09/06 08:32:45;;;;;;;3.05;2.30;;;22.30;99.90;;;;;;5054586;28;20254;-75
2023/09/06 08:35:14;;;;;;;3.03;2.25;;;22.40;99.90;;;;;;5055548;28;20199;-75
2023/09/06 08:37:41;;;;;;;3.13;2.22;;;22.50;99.90;;;;;;5058570;28;20230;-76
2023/09/06 08:40:07;;;;;;;3.42;2.15;;;22.70;99.90;;;;;;5046435;28;20182;-74
2023/09/06 08:42:34;;;;;;;2.92;2.35;;;22.80;99.90;;;;;;5038296;28;20173;-75
2023/09/06 08:45:02;;;;;;;2.80;2.00;;;22.90;99.90;;;;;;5056179;28;20173;-74
2023/09/06 08:47:31;;;;;;;3.25;2.10;;;23.00;99.90;;;;;;5057976;28;20181;-75
2023/09/06 08:49:57;;;;;;;3.10;2.03;;;23.10;99.90;;;;;;5062047;28;20205;-75
2023/09/06 08:52:26;;;;;;;2.70;1.80;;;23.20;99.90;;;;;;5061327;28;20209;-73
2023/09/06 08:54:54;;;;;;;2.38;2.00;;;23.30;99.90;;;;;;5060287;28;20209;-66
2023/09/06 08:57:25;;;;;;;2.83;2.00;;;23.40;99.90;;;;;;5057904;28;20173;-66
2023/09/06 08:59:54;;;;;;;2.67;2.33;;;23.60;99.90;;;;;;5057461;28;20196;-66
2023/09/06 09:02:24;;;;;;;1.75;1.60;;;23.70;99.90;;;;;;5057605;28;20238;-66
2023/09/06 09:04:49;;;;;;;2.58;1.80;;;23.80;99.90;;;;;;5057197;28;20165;-66
2023/09/06 09:07:20;;;;;;;3.05;2.40;;;23.90;99.90;;;;;;5057874;28;20300;-66
2023/09/06 09:09:59;;;;;;;3.08;2.25;;;24.10;99.90;;;;;;5054017;28;20184;-66
2023/09/06 09:12:35;;;;;;;2.38;1.85;;;24.20;99.90;;;;;;5038845;28;20209;-66
2023/09/06 09:15:05;;;;;;;2.65;2.30;;;24.30;99.90;;;;;;5057278;28;20292;-66
2023/09/06 09:17:37;;;;;;;2.42;1.90;;;24.40;99.90;;;;;;5056772;28;20174;-66
2023/09/06 09:20:03;;;;;;;4.70;2.60;;;24.50;99.90;;;;;;5057611;28;20235;-67
2023/09/06 09:22:31;;;;;;;2.42;2.20;;;24.70;99.90;;;;;;5057255;28;20237;-67
2023/09/06 09:25:16;;;;;;;4.07;2.40;;;24.80;99.90;;;;;;5057290;28;20265;-66
2023/09/06 09:27:45;;;;;;;3.35;2.20;;;24.90;99.90;;;;;;5056958;28;20177;-66
2023/09/06 09:30:16;;;;;;;2.55;2.13;;;25.00;99.90;;;;;;5057142;28;20173;-66
2023/09/06 09:32:42;;;;;;;2.90;1.80;;;25.20;99.90;;;;;;5057180;28;20276;-65
2023/09/06 09:35:12;;;;;;;3.45;2.20;;;25.30;99.90;;;;;;5057786;28;20196;-66
2023/09/06 09:37:40;;;;;;;2.80;1.90;;;25.40;99.90;;;;;;5053769;28;20212;-67
2023/09/06 09:40:32;;;;;;;2.88;2.33;;;25.50;99.90;;;;;;5037431;28;20180;-67
2023/09/06 09:43:02;;;;;;;2.17;1.98;;;25.60;99.90;;;;;;5054942;28;20192;-67
2023/09/06 09:45:31;;;;;;;2.78;1.73;;;25.70;99.90;;;;;;5056179;28;20173;-66
2023/09/06 09:47:57;;;;;;;2.72;1.90;;;25.80;99.90;;;;;;5056175;28;20185;-67
2023/09/06 09:50:30;;;;;;;2.20;1.90;;;25.90;99.90;;;;;;5053478;28;20186;-67
2023/09/06 09:52:56;;;;;;;2.45;2.17;;;26.10;99.90;;;;;;5037090;28;20293;-67
2023/09/06 09:55:34;;;;;;;2.30;2.05;;;26.30;99.90;;;;;;5049188;28;20212;-66
2023/09/06 09:58:05;;;;;;;3.75;1.98;;;26.70;99.90;;;;;;5056513;28;20181;-66
2023/09/06 10:00:39;;;;;;;3.08;2.17;;;27.30;99.90;;;;;;5055965;28;20181;-67
2023/09/06 10:03:05;;;;;;;2.53;2.08;;;27.90;99.90;;;;;;5053515;28;20200;-66
2023/09/06 10:05:31;;;;;;;2.55;2.10;;;28.70;99.90;;;;;;5053307;28;20185;-67
2023/09/06 10:08:00;;;;;;;2.33;1.90;;;29.20;99.90;;;;;;5051275;28;20240;-66
2023/09/06 10:10:29;;;;;;;2.20;1.70;;;29.70;99.90;;;;;;5036531;28;20232;-67
2023/09/06 10:12:57;;;;;;;3.00;2.20;;;30.20;99.90;;;;;;5036291;28;20213;-67
2023/09/06 10:15:25;;;;;;;2.95;2.13;;;30.60;99.90;;;;;;5053203;28;20166;-67
2023/09/06 10:17:55;;;;;;;2.45;2.00;;;30.90;99.90;;;;;;5055494;28;20224;-67
2023/09/06 10:20:24;;;;;;;2.50;2.00;;;31.20;99.90;;;;;;5055728;28;20179;-66
2023/09/06 10:22:54;;;;;;;2.40;2.05;;;31.50;99.90;;;;;;5056369;28;20188;-67
2023/09/06 10:25:19;;;;;;;4.00;1.80;;;31.80;99.90;;;;;;5055650;28;20459;-68
2023/09/06 10:27:50;;;;;;;2.80;2.28;;;32.00;99.90;;;;;;5056208;28;20200;-67
2023/09/06 10:30:19;;;;;;;2.70;1.98;;;32.20;99.80;;;;;;5054127;28;20246;-67
2023/09/06 10:32:46;;;;;;;3.25;2.20;;;32.40;99.90;;;;;;5055845;28;20220;-68
2023/09/06 10:35:30;;;;;;;3.55;1.80;;;32.50;99.80;;;;;;5055200;28;20173;-67
2023/09/06 10:38:14;;;;;;;1.92;1.73;;;32.70;96.60;;;;;;5055635;28;20176;-67
2023/09/06 10:40:49;;;;;;;1.90;1.67;;;32.80;94.70;;;;;;5049451;28;20263;-68
2023/09/06 10:43:28;;;;;;;3.10;1.95;;;33.00;95.60;;;;;;5055906;28;20263;-67
2023/09/06 10:46:07;;;;;;;2.20;2.00;;;33.10;94.70;;;;;;5035667;28;20185;-68
2023/09/06 10:48:35;;;;;;;4.15;1.90;;;33.10;94.60;;;;;;5043314;28;20173;-67
2023/09/06 10:51:14;;;;;;;2.53;1.90;;;33.20;96.10;;;;;;5055874;28;20183;-67
2023/09/06 10:53:50;;;;;;;2.55;2.03;;;33.30;93.90;;;;;;5051802;28;20209;-67
2023/09/06 10:56:27;;;;;;;2.67;1.92;;;33.40;95.60;;;;;;5035895;28;20177;-67
2023/09/06 10:58:57;;;;;;;2.28;2.00;;;33.50;93.20;;;;;;5035499;28;20365;-66
2023/09/06 11:01:22;;;;;;;2.63;1.95;;;33.50;93.70;;;;;;5038210;28;20211;-66
2023/09/06 11:03:51;;;;;;;2.22;2.03;;;33.60;93.40;;;;;;5055403;28;20406;-66
2023/09/06 11:06:19;;;;;;;2.35;2.03;;;33.50;92.30;;;;;;5049777;28;20182;-67
2023/09/06 11:08:47;;;;;;;2.72;2.20;;;33.50;92.50;;;;;;5068563;28;20216;-67
2023/09/06 11:11:15;;;;;;;12.32;3.10;;;33.50;92.20;;;;;;5035765;28;20177;-67
2023/09/06 11:13:44;;;;;;;2.88;2.30;;;33.50;90.30;;;;;;5035290;28;20209;-67
2023/09/06 11:16:15;;;;;;;3.50;2.70;;;33.50;90.50;;;;;;5055433;28;20223;-67
2023/09/06 11:18:49;;;;;;;2.13;1.90;;;33.40;86.10;;;;;;5055208;28;20169;-67
2023/09/06 11:21:19;;;;;;;2.15;1.95;;;33.40;84.80;;;;;;5055253;28;20165;-67
2023/09/06 11:23:54;;;;;;;7.10;2.03;;;33.30;88.40;;;;;;5054620;28;20169;-67
2023/09/06 11:26:19;;;;;;;2.50;2.10;;;33.40;83.70;;;;;;5055485;28;20176;-67
2023/09/06 11:28:50;;;;;;;2.20;2.00;;;33.40;87.20;;;;;;5053996;28;20207;-66
2023/09/06 11:31:33;;;;;;;2.20;1.70;;;33.50;85.10;;;;;;5055086;28;20186;-68
2023/09/06 11:34:05;;;;;;;4.72;2.25;;;33.40;79.90;;;;;;5040562;28;20235;-68
2023/09/06 11:36:33;;;;;;;2.40;2.20;;;33.40;79.20;;;;;;5034732;28;20296;-67
2023/09/06 11:39:21;;;;;;;2.50;2.28;;;33.40;82.90;;;;;;5050096;28;20180;-66
2023/09/06 11:41:48;;;;;;;1.92;1.83;;;33.40;80.50;;;;;;5053877;28;20169;-67
2023/09/06 11:44:19;;;;;;;2.72;2.20;;;33.40;83.00;;;;;;5054978;28;20172;-66
2023/09/06 11:46:48;;;;;;;2.40;2.20;;;33.50;80.50;;;;;;5053907;28;20177;-66
2023/09/06 11:49:21;;;;;;;2.17;1.98;;;33.50;80.00;;;;;;5054981;28;20196;-66
2023/09/06 11:51:47;;;;;;;2.22;2.03;;;33.50;79.70;;;;;;5054226;28;20184;-67
2023/09/06 11:54:15;;;;;;;2.10;1.90;;;33.60;80.40;;;;;;5054469;28;20200;-68
2023/09/06 11:56:48;;;;;;;2.10;1.90;;;33.60;80.40;;;;;;5054214;28;20192;-67
2023/09/06 11:59:20;;;;;;;1.95;1.75;;;33.70;79.80;;;;;;5050630;28;20174;-67
2023/09/06 12:01:52;;;;;;;2.30;2.10;;;33.80;79.70;;;;;;5051214;28;20198;-67
2023/09/06 12:04:22;;;;;;;2.00;1.80;;;33.90;80.20;;;;;;5054455;28;20458;-67
2023/09/06 12:06:51;;;;;;;2.40;2.13;;;34.00;79.60;;;;;;5054673;28;20207;-67
2023/09/06 12:09:18;;;;;;;2.40;2.00;;;34.10;78.60;;;;;;5054197;28;20172;-67
2023/09/06 12:11:44;;;;;;;2.90;2.28;;;34.10;76.70;;;;;;5052566;28;20263;-67
2023/09/06 12:14:12;;;;;;;2.30;2.00;;;34.10;75.40;;;;;;5054281;28;20295;-68
2023/09/06 12:16:41;;;;;;;2.95;2.20;;;34.20;74.00;;;;;;5049747;28;20176;-68
2023/09/06 12:19:17;;;;;;;2.17;1.98;;;34.20;73.60;;;;;;5054370;28;20189;-68
2023/09/06 12:21:45;;;;;;;2.58;2.30;;;34.30;71.60;;;;;;5050440;28;20196;-67
2023/09/06 12:24:11;;;;;;;3.72;2.00;;;34.30;72.30;;;;;;5034548;28;20208;-67
2023/09/06 12:26:39;;;;;;;2.38;2.00;;;34.30;72.50;;;;;;5048081;28;20176;-68
2023/09/06 12:29:04;;;;;;;5.82;4.85;;;34.30;71.70;;;;;;5054478;28;20238;-67
2023/09/06 12:31:30;;;;;;;3.20;2.90;;;34.40;71.70;;;;;;5054126;28;20208;-68
2023/09/06 12:33:56;;;;;;;4.43;2.50;;;34.40;70.80;;;;;;5050688;28;20274;-68
2023/09/06 12:36:21;;;;;;;2.88;2.42;;;34.40;70.50;;;;;;5034065;28;20193;-67
2023/09/06 12:38:51;;;;;;;5.60;2.50;;;34.40;70.00;;;;;;5046551;28;20187;-67
2023/09/06 12:41:17;;;;;;;2.88;2.10;;;34.50;68.70;;;;;;5054164;28;20250;-68
2023/09/06 12:43:46;;;;;;;2.40;2.10;;;34.60;69.80;;;;;;5050302;28;20240;-67
2023/09/06 12:46:12;;;;;;;2.53;2.20;;;34.60;68.90;;;;;;5034218;28;20178;-67
2023/09/06 12:48:42;;;;;;;2.88;2.17;;;34.70;68.70;;;;;;5034352;28;20211;-67
2023/09/06 12:51:07;;;;;;;3.97;2.10;;;34.80;67.50;;;;;;5047201;28;20196;-68
2023/09/06 12:53:33;;;;;;;2.33;2.00;;;34.90;68.00;;;;;;5054114;28;20209;-66
2023/09/06 12:55:59;;;;;;;2.35;2.15;;;34.90;67.00;;;;;;5053374;28;20275;-67
2023/09/06 12:58:24;;;;;;;3.55;2.30;;;35.00;66.00;;;;;;5053668;28;20209;-67